Time;durP1;ratioP1;P1;durP2;ratioP2;P2;SDS_P1;SDS_P2;PMS_P1;PMS_P2;Temp;Humidity;BMP_temperature;BMP_pressure;BME280_temperature;BME280_humidity;BME280_pressure;Samples;Min_cycle;Max_cycle;Signal;HPM_P1;HPM_P2
2023/06/13 00:00:38;;;;;;;6.13;4.38;;;;;;;;;;4845690;28;20206;-72
2023/06/13 00:03:09;;;;;;;6.35;3.97;;;;;;;;;;4846075;28;20044;-73
2023/06/13 00:05:34;;;;;;;8.18;4.32;;;;;;;;;;4846152;28;20091;-72
2023/06/13 00:07:59;;;;;;;7.88;4.05;;;;;;;;;;4845741;28;20068;-72
2023/06/13 00:10:25;;;;;;;5.50;3.90;;;;;;;;;;4845706;28;20156;-71
2023/06/13 00:12:51;;;;;;;7.15;4.53;;;;;;;;;;4846009;28;20072;-72
2023/06/13 00:15:16;;;;;;;11.23;4.40;;;;;;;;;;4846677;28;21118;-72
2023/06/13 00:17:45;;;;;;;6.18;4.18;;;;;;;;;;4846676;28;20937;-72
2023/06/13 00:20:11;;;;;;;12.30;4.35;;;;;;;;;;4846802;28;20049;-72
2023/06/13 00:22:36;;;;;;;8.45;4.30;;;;;;;;;;4846663;28;20092;-72
2023/06/13 00:25:02;;;;;;;7.38;4.00;;;;;;;;;;4860477;28;20032;-73
2023/06/13 00:27:27;;;;;;;7.47;4.10;;;;;;;;;;4845550;28;20037;-73
2023/06/13 00:29:52;;;;;;;7.00;4.18;;;;;;;;;;4846313;28;20120;-73
2023/06/13 00:32:18;;;;;;;7.53;3.65;;;;;;;;;;4846623;28;20089;-74
2023/06/13 00:34:44;;;;;;;7.25;4.18;;;;;;;;;;4845316;28;20107;-74
2023/06/13 00:37:09;;;;;;;7.65;4.10;;;;;;;;;;4844263;28;20032;-73
2023/06/13 00:39:35;;;;;;;6.47;4.10;;;;;;;;;;4845274;28;20040;-75
2023/06/13 00:42:01;;;;;;;5.65;4.05;;;;;;;;;;4845846;28;20037;-74
2023/06/13 00:44:31;;;;;;;5.20;3.80;;;;;;;;;;4844793;28;20036;-73
2023/06/13 00:47:00;;;;;;;7.03;4.15;;;;;;;;;;4844740;28;20709;-73
2023/06/13 00:49:27;;;;;;;6.27;3.90;;;;;;;;;;4845028;28;20040;-73
2023/06/13 00:51:54;;;;;;;8.73;4.10;;;;;;;;;;4845709;28;20080;-71
2023/06/13 00:54:21;;;;;;;8.27;4.00;;;;;;;;;;4860840;28;22328;-73
2023/06/13 00:56:49;;;;;;;5.25;3.90;;;;;;;;;;4845855;28;20047;-75
2023/06/13 00:59:15;;;;;;;8.00;4.32;;;;;;;;;;4845890;28;20544;-72
2023/06/13 01:01:42;;;;;;;8.40;3.90;;;;;;;;;;4845970;28;20048;-72
2023/06/13 01:04:07;;;;;;;11.13;4.35;;;;;;;;;;4846204;28;20037;-71
2023/06/13 01:06:38;;;;;;;8.68;4.50;;;;;;;;;;4845274;28;20130;-70
2023/06/13 01:09:05;;;;;;;7.88;4.40;;;;;;;;;;4845305;28;20090;-72
2023/06/13 01:11:49;;;;;;;8.50;4.00;;;;;;;;;;4845362;28;20049;-72
2023/06/13 01:14:40;;;;;;;6.53;4.20;;;;;;;;;;4844567;28;20394;-72
2023/06/13 01:17:17;;;;;;;6.45;3.78;;;;;;;;;;4859309;28;20147;-71
2023/06/13 01:19:47;;;;;;;7.00;4.22;;;;;;;;;;4846440;28;23145;-72
2023/06/13 01:22:17;;;;;;;6.13;4.20;;;;;;;;;;4846178;28;22703;-72
2023/06/13 01:24:54;;;;;;;6.00;4.18;;;;;;;;;;4846691;28;20069;-71
2023/06/13 01:27:21;;;;;;;7.30;4.00;;;;;;;;;;4847255;28;20057;-72
2023/06/13 01:29:48;;;;;;;8.20;3.92;;;;;;;;;;4848777;28;20126;-72
2023/06/13 01:32:17;;;;;;;7.05;4.07;;;;;;;;;;4861630;28;20068;-72
2023/06/13 01:34:45;;;;;;;6.95;4.05;;;;;;;;;;4848002;28;20038;-72
2023/06/13 01:37:11;;;;;;;6.03;4.10;;;;;;;;;;4848079;28;20119;-72
2023/06/13 01:39:36;;;;;;;9.02;4.28;;;;;;;;;;4849247;28;20566;-71
2023/06/13 01:42:01;;;;;;;7.85;4.65;;;;;;;;;;4846873;28;20994;-72
2023/06/13 01:44:29;;;;;;;6.97;4.40;;;;;;;;;;4847939;28;20043;-71
2023/06/13 01:47:05;;;;;;;6.88;4.10;;;;;;;;;;4862419;28;20119;-72
2023/06/13 01:49:43;;;;;;;7.18;4.00;;;;;;;;;;4848430;28;20104;-71
2023/06/13 01:52:14;;;;;;;6.57;4.15;;;;;;;;;;4847246;28;20151;-71
2023/06/13 01:54:43;;;;;;;7.10;4.30;;;;;;;;;;4847181;28;20041;-72
2023/06/13 01:57:09;;;;;;;7.80;4.47;;;;;;;;;;4847703;28;20047;-72
2023/06/13 01:59:38;;;;;;;8.63;4.38;;;;;;;;;;4847638;28;20037;-72
2023/06/13 02:02:05;;;;;;;7.43;4.03;;;;;;;;;;4847747;28;20140;-71
2023/06/13 02:04:38;;;;;;;6.65;4.15;;;;;;;;;;4847906;28;20741;-71
2023/06/13 02:07:06;;;;;;;8.90;4.18;;;;;;;;;;4846044;28;20143;-71
2023/06/13 02:09:31;;;;;;;6.78;4.30;;;;;;;;;;4847169;28;20048;-71
2023/06/13 02:11:56;;;;;;;9.50;5.10;;;;;;;;;;4846389;28;20091;-71
2023/06/13 02:14:23;;;;;;;8.80;4.70;;;;;;;;;;4909001;28;25215;-71
2023/06/13 02:16:51;;;;;;;9.73;4.40;;;;;;;;;;4833638;28;20091;-71
2023/06/13 02:19:18;;;;;;;11.35;4.90;;;;;;;;;;4861066;28;20037;-72
2023/06/13 02:21:44;;;;;;;9.27;5.30;;;;;;;;;;4848176;28;20036;-71
2023/06/13 02:24:14;;;;;;;7.28;4.93;;;;;;;;;;4846986;28;20148;-71
2023/06/13 02:26:42;;;;;;;9.55;5.57;;;;;;;;;;4845406;28;20048;-71
2023/06/13 02:29:07;;;;;;;9.85;5.13;;;;;;;;;;4847686;28;20033;-71
2023/06/13 02:31:35;;;;;;;9.57;4.75;;;;;;;;;;4846022;28;20231;-72
2023/06/13 02:34:01;;;;;;;7.60;5.10;;;;;;;;;;4847010;28;20149;-70
2023/06/13 02:36:26;;;;;;;8.85;5.30;;;;;;;;;;4846942;28;20037;-71
2023/06/13 02:38:54;;;;;;;10.00;5.30;;;;;;;;;;4846917;28;20041;-75
2023/06/13 02:41:19;;;;;;;6.85;5.00;;;;;;;;;;4849745;28;20127;-74
2023/06/13 02:43:47;;;;;;;9.40;5.60;;;;;;;;;;4847061;28;20098;-74
2023/06/13 02:46:12;;;;;;;11.18;6.38;;;;;;;;;;4866708;28;20063;-75
2023/06/13 02:48:40;;;;;;;11.73;6.40;;;;;;;;;;4861411;28;20751;-74
2023/06/13 02:51:08;;;;;;;9.55;5.22;;;;;;;;;;4848191;28;20580;-74
2023/06/13 02:53:33;;;;;;;9.45;5.93;;;;;;;;;;4847727;28;20040;-75
2023/06/13 02:55:58;;;;;;;9.52;6.25;;;;;;;;;;4847948;28;20326;-75
2023/06/13 02:58:24;;;;;;;11.02;6.82;;;;;;;;;;4847836;28;20099;-75
2023/06/13 03:00:49;;;;;;;9.18;5.88;;;;;;;;;;4846271;28;20147;-74
2023/06/13 03:03:16;;;;;;;13.10;5.97;;;;;;;;;;4848309;28;20172;-77
2023/06/13 03:05:47;;;;;;;11.68;6.82;;;;;;;;;;4849330;28;20056;-74
2023/06/13 03:08:13;;;;;;;10.23;5.72;;;;;;;;;;4847148;28;20563;-74
2023/06/13 03:10:41;;;;;;;10.18;6.60;;;;;;;;;;4845466;28;20056;-75
2023/06/13 03:13:06;;;;;;;8.20;6.25;;;;;;;;;;4863089;28;20047;-73
2023/06/13 03:15:32;;;;;;;10.18;6.47;;;;;;;;;;4850331;28;20083;-75
2023/06/13 03:17:57;;;;;;;10.50;6.35;;;;;;;;;;4849113;28;20063;-75
2023/06/13 03:20:22;;;;;;;9.38;6.30;;;;;;;;;;4846099;28;20033;-75
2023/06/13 03:22:48;;;;;;;9.23;6.22;;;;;;;;;;4847359;28;20073;-77
2023/06/13 03:25:14;;;;;;;9.73;6.28;;;;;;;;;;4846768;28;20092;-76
2023/06/13 03:27:41;;;;;;;12.93;6.90;;;;;;;;;;4846725;28;20788;-74
2023/06/13 03:30:07;;;;;;;11.70;7.30;;;;;;;;;;4847311;28;20041;-75
2023/06/13 03:32:33;;;;;;;9.98;6.32;;;;;;;;;;4860612;28;20033;-74
2023/06/13 03:34:58;;;;;;;9.07;6.25;;;;;;;;;;4862754;28;20029;-74
2023/06/13 03:37:25;;;;;;;10.13;6.40;;;;;;;;;;4847632;28;20069;-75
2023/06/13 03:39:51;;;;;;;10.98;6.60;;;;;;;;;;4846908;28;20116;-74
2023/06/13 03:42:18;;;;;;;10.68;7.18;;;;;;;;;;4845157;28;20041;-74
2023/06/13 03:44:46;;;;;;;11.00;6.05;;;;;;;;;;4849119;28;20115;-74
2023/06/13 03:47:14;;;;;;;16.73;6.78;;;;;;;;;;4861976;28;20033;-74
2023/06/13 03:49:39;;;;;;;11.15;6.32;;;;;;;;;;4848118;28;20052;-74
2023/06/13 03:52:05;;;;;;;9.00;6.40;;;;;;;;;;4844087;28;20040;-74
2023/06/13 03:54:32;;;;;;;12.63;6.80;;;;;;;;;;4848366;28;20802;-74
2023/06/13 03:56:57;;;;;;;10.70;6.90;;;;;;;;;;4848055;28;20068;-73
2023/06/13 03:59:23;;;;;;;10.13;6.53;;;;;;;;;;4848023;28;20125;-74
2023/06/13 04:01:48;;;;;;;11.27;6.57;;;;;;;;;;4848428;28;20043;-75
2023/06/13 04:04:13;;;;;;;12.32;6.63;;;;;;;;;;4849170;28;20051;-75
2023/06/13 04:06:38;;;;;;;13.30;6.38;;;;;;;;;;4849255;28;20037;-74
2023/06/13 04:09:07;;;;;;;9.70;6.25;;;;;;;;;;4850151;28;20812;-74
2023/06/13 04:11:33;;;;;;;11.52;6.07;;;;;;;;;;4847134;28;20060;-74
2023/06/13 04:13:59;;;;;;;13.00;6.70;;;;;;;;;;4850266;28;20057;-74
2023/06/13 04:16:24;;;;;;;6.95;6.07;;;;;;;;;;4849880;28;20041;-73
2023/06/13 04:18:54;;;;;;;9.73;6.15;;;;;;;;;;4850161;28;20663;-73
2023/06/13 04:21:21;;;;;;;9.05;6.18;;;;;;;;;;4862731;28;20056;-75
2023/06/13 04:23:48;;;;;;;9.55;6.35;;;;;;;;;;4849457;28;20033;-73
2023/06/13 04:26:13;;;;;;;10.63;6.90;;;;;;;;;;4849056;28;20711;-75
2023/06/13 04:28:39;;;;;;;10.50;6.70;;;;;;;;;;4848655;28;20052;-75
2023/06/13 04:31:04;;;;;;;9.35;6.50;;;;;;;;;;4851532;28;21442;-78
2023/06/13 04:33:30;;;;;;;10.07;6.70;;;;;;;;;;4848458;28;20044;-77
2023/06/13 04:36:03;;;;;;;9.98;6.50;;;;;;;;;;4848664;28;20045;-76
2023/06/13 04:38:29;;;;;;;14.43;8.05;;;;;;;;;;4849714;28;20160;-77
2023/06/13 04:40:54;;;;;;;14.27;8.07;;;;;;;;;;4849331;28;20041;-75
2023/06/13 04:43:21;;;;;;;11.35;6.57;;;;;;;;;;4850465;28;20037;-74
2023/06/13 04:45:46;;;;;;;10.43;5.97;;;;;;;;;;4866347;28;22280;-75
2023/06/13 04:48:11;;;;;;;7.85;5.60;;;;;;;;;;4849623;28;20032;-75
2023/06/13 04:50:40;;;;;;;11.75;5.63;;;;;;;;;;4851277;28;20077;-74
2023/06/13 04:53:07;;;;;;;11.68;6.07;;;;;;;;;;4850180;28;20063;-75
2023/06/13 04:55:35;;;;;;;9.32;6.10;;;;;;;;;;4851819;28;20581;-73
2023/06/13 04:58:00;;;;;;;8.05;5.53;;;;;;;;;;4852726;28;20140;-74
2023/06/13 05:00:26;;;;;;;9.02;5.82;;;;;;;;;;4852219;28;20048;-73
2023/06/13 05:02:55;;;;;;;11.23;5.75;;;;;;;;;;4863762;28;22267;-70
2023/06/13 05:05:21;;;;;;;9.48;5.80;;;;;;;;;;4848583;28;20122;-69
2023/06/13 05:07:47;;;;;;;10.30;6.25;;;;;;;;;;4848477;28;20029;-71
2023/06/13 05:10:12;;;;;;;10.90;6.05;;;;;;;;;;4847805;28;20056;-70
2023/06/13 05:12:38;;;;;;;8.80;6.50;;;;;;;;;;4847794;28;20123;-64
2023/06/13 05:15:03;;;;;;;8.85;5.65;;;;;;;;;;4846370;28;20930;-63
2023/06/13 05:17:29;;;;;;;9.88;5.50;;;;;;;;;;4845256;28;20094;-63
2023/06/13 05:19:54;;;;;;;9.07;5.65;;;;;;;;;;4846930;28;20557;-64
2023/06/13 05:22:20;;;;;;;8.80;5.30;;;;;;;;;;4847816;28;20360;-65
2023/06/13 05:24:45;;;;;;;9.50;5.95;;;;;;;;;;4843711;28;20041;-64
2023/06/13 05:27:11;;;;;;;9.82;5.50;;;;;;;;;;4847035;28;20037;-65
2023/06/13 05:29:36;;;;;;;8.45;5.32;;;;;;;;;;4845661;28;20084;-65
2023/06/13 05:32:02;;;;;;;9.90;5.45;;;;;;;;;;4845847;28;20053;-65
2023/06/13 05:34:31;;;;;;;8.07;4.78;;;;;;;;;;4843765;28;20037;-65
2023/06/13 05:36:56;;;;;;;8.90;4.82;;;;;;;;;;4846253;28;20136;-66
2023/06/13 05:39:22;;;;;;;8.73;4.97;;;;;;;;;;4864011;28;20043;-66
2023/06/13 05:41:52;;;;;;;10.75;5.35;;;;;;;;;;4844967;28;20065;-65
2023/06/13 05:44:17;;;;;;;6.65;4.68;;;;;;;;;;4862660;28;20047;-66
2023/06/13 05:46:42;;;;;;;8.75;5.22;;;;;;;;;;4845244;28;20045;-66
2023/06/13 05:49:07;;;;;;;8.05;4.93;;;;;;;;;;4860866;28;20043;-65
2023/06/13 05:51:36;;;;;;;8.68;4.82;;;;;;;;;;4846713;28;22404;-65
2023/06/13 05:54:02;;;;;;;6.78;4.90;;;;;;;;;;4843418;28;20616;-66
2023/06/13 05:56:27;;;;;;;11.25;5.32;;;;;;;;;;4845414;28;20176;-65
2023/06/13 05:58:52;;;;;;;8.65;5.30;;;;;;;;;;4844130;28;20032;-65
2023/06/13 06:01:20;;;;;;;8.13;5.00;;;;;;;;;;4843313;28;20042;-65
2023/06/13 06:03:46;;;;;;;12.38;5.07;;;;;;;;;;4843873;28;20114;-65
2023/06/13 06:06:12;;;;;;;8.38;4.80;;;;;;;;;;4843683;28;20083;-65
2023/06/13 06:08:37;;;;;;;8.07;5.22;;;;;;;;;;4839258;28;20053;-65
2023/06/13 06:11:02;;;;;;;8.73;4.72;;;;;;;;;;4845998;28;21217;-65
2023/06/13 06:13:28;;;;;;;9.25;4.80;;;;;;;;;;4843439;28;20348;-66
2023/06/13 06:15:53;;;;;;;5.57;4.25;;;;;;;;;;4845043;28;21868;-65
2023/06/13 06:18:20;;;;;;;7.10;4.20;;;;;;;;;;4845804;28;20060;-68
2023/06/13 06:20:45;;;;;;;10.77;4.97;;;;;;;;;;4846411;28;20108;-66
2023/06/13 06:23:12;;;;;;;7.53;4.80;;;;;;;;;;4860879;28;22436;-66
2023/06/13 06:25:38;;;;;;;6.93;4.30;;;;;;;;;;4844348;28;20122;-67
2023/06/13 06:28:03;;;;;;;7.78;4.60;;;;;;;;;;4846543;28;20041;-70
2023/06/13 06:30:29;;;;;;;7.00;4.32;;;;;;;;;;4845035;28;20051;-70
2023/06/13 06:32:55;;;;;;;12.90;4.50;;;;;;;;;;4828666;28;20041;-71
2023/06/13 06:35:20;;;;;;;7.70;4.70;;;;;;;;;;4848516;28;20211;-69
2023/06/13 06:37:46;;;;;;;11.50;4.28;;;;;;;;;;4861156;28;20033;-71
2023/06/13 06:40:12;;;;;;;8.88;4.35;;;;;;;;;;4862510;28;20029;-71
2023/06/13 06:42:39;;;;;;;10.85;4.35;;;;;;;;;;4847900;28;20072;-71
2023/06/13 06:45:05;;;;;;;6.22;4.18;;;;;;;;;;4862511;29;20160;-71
2023/06/13 06:47:31;;;;;;;8.52;4.55;;;;;;;;;;4848765;28;20087;-72
2023/06/13 06:49:56;;;;;;;6.82;4.55;;;;;;;;;;4847690;29;20049;-70
2023/06/13 06:52:21;;;;;;;6.05;3.90;;;;;;;;;;4846787;28;20053;-73
2023/06/13 06:54:46;;;;;;;7.35;3.88;;;;;;;;;;4848179;28;20104;-72
2023/06/13 06:57:12;;;;;;;6.38;4.28;;;;;;;;;;4848088;28;20142;-71
2023/06/13 06:59:37;;;;;;;5.75;4.00;;;;;;;;;;4847212;28;20040;-71
2023/06/13 07:02:05;;;;;;;6.10;4.20;;;;;;;;;;4846683;28;20124;-71
2023/06/13 07:04:30;;;;;;;7.70;4.47;;;;;;;;;;4846206;28;20058;-71
2023/06/13 07:06:55;;;;;;;6.00;4.45;;;;;;;;;;4847624;29;20881;-71
2023/06/13 07:09:21;;;;;;;5.40;4.10;;;;;;;;;;4848122;28;20102;-71
2023/06/13 07:11:46;;;;;;;8.38;4.25;;;;;;;;;;4859737;28;20055;-70
2023/06/13 07:14:14;;;;;;;7.50;3.72;;;;;;;;;;4846404;28;20060;-70
2023/06/13 07:16:40;;;;;;;8.65;3.70;;;;;;;;;;4843907;28;21051;-70
2023/06/13 07:19:05;;;;;;;6.30;3.90;;;;;;;;;;4845025;28;20036;-71
2023/06/13 07:21:30;;;;;;;5.43;3.80;;;;;;;;;;4844308;28;20077;-71
2023/06/13 07:23:56;;;;;;;5.50;3.83;;;;;;;;;;4842648;28;20036;-67
2023/06/13 07:26:21;;;;;;;13.32;4.88;;;;;;;;;;4844258;28;20075;-66
2023/06/13 07:28:51;;;;;;;6.82;3.95;;;;;;;;;;4843491;28;20833;-67
2023/06/13 07:31:20;;;;;;;4.53;3.70;;;;;;;;;;4843492;28;20055;-66
2023/06/13 07:33:47;;;;;;;5.05;3.88;;;;;;;;;;4844790;28;20028;-66
2023/06/13 07:36:13;;;;;;;7.72;3.90;;;;;;;;;;4843707;28;20589;-66
2023/06/13 07:38:38;;;;;;;6.63;3.92;;;;;;;;;;4842770;28;20070;-66
2023/06/13 07:41:05;;;;;;;7.20;3.45;;;;;;;;;;4842090;28;20680;-66
2023/06/13 07:43:30;;;;;;;6.57;3.90;;;;;;;;;;4843482;28;20768;-66
2023/06/13 07:45:56;;;;;;;6.28;3.70;;;;;;;;;;4840321;28;20067;-69
2023/06/13 07:48:23;;;;;;;6.07;3.50;;;;;;;;;;4842327;28;20032;-67
2023/06/13 07:50:49;;;;;;;10.68;4.25;;;;;;;;;;4839219;28;20048;-66
2023/06/13 07:53:14;;;;;;;6.03;3.85;;;;;;;;;;4840895;28;20144;-67
2023/06/13 07:55:45;;;;;;;6.07;3.78;;;;;;;;;;4839613;28;20071;-66
2023/06/13 07:58:10;;;;;;;7.88;3.72;;;;;;;;;;4857870;28;20167;-68
2023/06/13 08:00:35;;;;;;;9.80;4.40;;;;;;;;;;4855720;28;20036;-66
2023/06/13 08:03:01;;;;;;;9.77;3.92;;;;;;;;;;4839554;28;21530;-69
2023/06/13 08:05:26;;;;;;;9.18;4.28;;;;;;;;;;4842489;28;20033;-66
2023/06/13 08:07:52;;;;;;;9.23;4.15;;;;;;;;;;4843021;28;20034;-66
2023/06/13 08:10:17;;;;;;;8.82;4.00;;;;;;;;;;4859767;28;20506;-67
2023/06/13 08:12:42;;;;;;;9.50;4.55;;;;;;;;;;4844657;28;20033;-66
2023/06/13 08:15:08;;;;;;;5.65;4.47;;;;;;;;;;4844497;28;20070;-67
2023/06/13 08:17:33;;;;;;;9.40;4.28;;;;;;;;;;4859942;28;20048;-66
2023/06/13 08:19:59;;;;;;;6.70;4.10;;;;;;;;;;4844511;28;20044;-68
2023/06/13 08:22:27;;;;;;;7.13;4.20;;;;;;;;;;4845194;28;20079;-67
2023/06/13 08:24:52;;;;;;;6.85;4.47;;;;;;;;;;4841229;28;20063;-67
2023/06/13 08:27:20;;;;;;;11.13;4.00;;;;;;;;;;4839004;28;20516;-67
2023/06/13 08:29:45;;;;;;;10.50;4.10;;;;;;;;;;4859566;28;20033;-68
2023/06/13 08:32:10;;;;;;;6.57;4.03;;;;;;;;;;4860952;28;20199;-68
2023/06/13 08:34:40;;;;;;;6.13;4.20;;;;;;;;;;4856786;28;20115;-68
2023/06/13 08:37:05;;;;;;;7.05;4.28;;;;;;;;;;4845375;28;20085;-67
2023/06/13 08:39:31;;;;;;;7.70;4.38;;;;;;;;;;4845468;28;20037;-68
2023/06/13 08:41:56;;;;;;;6.95;4.13;;;;;;;;;;4843624;28;20044;-69
2023/06/13 08:44:25;;;;;;;7.22;4.60;;;;;;;;;;4843736;28;20630;-67
2023/06/13 08:46:53;;;;;;;7.45;4.53;;;;;;;;;;4843360;28;20147;-67
2023/06/13 08:49:18;;;;;;;6.50;3.90;;;;;;;;;;4843259;28;20033;-67
2023/06/13 08:51:45;;;;;;;4.60;3.85;;;;;;;;;;4843856;28;20110;-68
2023/06/13 08:54:12;;;;;;;6.63;4.32;;;;;;;;;;4843095;28;20051;-68
2023/06/13 08:56:40;;;;;;;6.60;4.18;;;;;;;;;;4843532;28;20116;-68
2023/06/13 08:59:07;;;;;;;7.70;4.05;;;;;;;;;;4845495;28;20056;-68
2023/06/13 09:01:34;;;;;;;8.60;4.40;;;;;;;;;;4848979;28;20040;-67
2023/06/13 09:04:02;;;;;;;5.85;3.83;;;;;;;;;;4848749;28;20040;-68
2023/06/13 09:06:31;;;;;;;8.68;4.53;;;;;;;;;;4848947;28;20929;-70
2023/06/13 09:08:56;;;;;;;8.13;4.07;;;;;;;;;;4848404;28;20037;-67
2023/06/13 09:11:25;;;;;;;9.52;4.32;;;;;;;;;;4846686;28;20111;-67
2023/06/13 09:13:55;;;;;;;6.97;4.05;;;;;;;;;;4849129;28;20164;-68
2023/06/13 09:16:21;;;;;;;8.13;4.15;;;;;;;;;;4846639;28;20041;-67
2023/06/13 09:18:47;;;;;;;5.80;4.05;;;;;;;;;;4848604;28;20044;-67
2023/06/13 09:21:13;;;;;;;7.25;4.20;;;;;;;;;;4847125;28;20076;-67
2023/06/13 09:23:39;;;;;;;5.22;3.88;;;;;;;;;;4846059;28;20064;-68
2023/06/13 09:26:05;;;;;;;5.97;4.18;;;;;;;;;;4844991;28;20047;-67
2023/06/13 09:28:31;;;;;;;7.97;4.28;;;;;;;;;;4845576;28;21248;-67
2023/06/13 09:31:00;;;;;;;8.20;4.25;;;;;;;;;;4845835;28;20135;-66
2023/06/13 09:33:27;;;;;;;7.47;4.22;;;;;;;;;;4848269;28;21205;-66
2023/06/13 09:35:53;;;;;;;6.80;3.65;;;;;;;;;;4908108;28;21411;-66
2023/06/13 09:38:25;;;;;;;5.35;4.03;;;;;;;;;;4847981;28;20215;-67
2023/06/13 09:40:57;;;;;;;8.68;3.88;;;;;;;;;;4846094;28;20047;-67
2023/06/13 09:43:24;;;;;;;12.05;4.25;;;;;;;;;;4846692;28;20056;-67
2023/06/13 09:45:50;;;;;;;10.68;4.20;;;;;;;;;;4847514;28;20045;-67
2023/06/13 09:48:19;;;;;;;6.57;4.53;;;;;;;;;;4847843;28;20037;-67
2023/06/13 09:50:44;;;;;;;11.38;4.78;;;;;;;;;;4846969;28;21037;-67
2023/06/13 09:53:10;;;;;;;8.75;4.10;;;;;;;;;;4862889;28;20033;-67
2023/06/13 09:55:35;;;;;;;12.98;4.35;;;;;;;;;;4842113;28;20041;-67
2023/06/13 09:58:01;;;;;;;9.85;4.22;;;;;;;;;;4848036;28;20052;-67
2023/06/13 10:00:28;;;;;;;5.95;3.50;;;;;;;;;;4845318;28;20107;-67
2023/06/13 10:02:53;;;;;;;7.55;3.88;;;;;;;;;;4846910;28;20138;-67
2023/06/13 10:05:18;;;;;;;9.43;4.10;;;;;;;;;;4845344;28;20055;-68
2023/06/13 10:07:46;;;;;;;6.55;4.10;;;;;;;;;;4860799;28;20045;-67
2023/06/13 10:10:11;;;;;;;5.55;4.45;;;;;;;;;;4847313;28;20119;-66
2023/06/13 10:12:38;;;;;;;10.02;4.35;;;;;;;;;;4845329;28;20048;-67
2023/06/13 10:15:07;;;;;;;7.82;3.90;;;;;;;;;;4844939;28;20036;-67
2023/06/13 10:17:35;;;;;;;10.75;4.40;;;;;;;;;;4862665;28;21143;-68
2023/06/13 10:20:05;;;;;;;8.50;3.95;;;;;;;;;;4846223;28;20037;-63
2023/06/13 10:22:30;;;;;;;7.65;4.10;;;;;;;;;;4845903;28;20870;-66
2023/06/13 10:24:56;;;;;;;7.95;4.22;;;;;;;;;;4861977;28;20064;-66
2023/06/13 10:27:22;;;;;;;6.68;4.15;;;;;;;;;;4846255;28;20111;-67
2023/06/13 10:30:04;;;;;;;5.65;3.78;;;;;;;;;;4861656;28;20041;-66
2023/06/13 10:32:37;;;;;;;7.03;3.90;;;;;;;;;;4848623;29;20044;-67
2023/06/13 10:35:22;;;;;;;11.65;4.25;;;;;;;;;;4846447;28;20163;-65
2023/06/13 10:37:53;;;;;;;7.57;4.45;;;;;;;;;;4846829;28;20045;-66
2023/06/13 10:40:30;;;;;;;6.63;4.10;;;;;;;;;;4834003;28;20984;-65
2023/06/13 10:43:00;;;;;;;8.65;4.07;;;;;;;;;;4846285;28;20036;-66
2023/06/13 10:45:27;;;;;;;10.27;4.22;;;;;;;;;;4838335;28;20037;-67
2023/06/13 10:47:52;;;;;;;9.50;3.97;;;;;;;;;;4857364;28;21157;-66
2023/06/13 10:50:18;;;;;;;8.85;4.30;;;;;;;;;;4845838;28;20036;-66
2023/06/13 10:52:48;;;;;;;6.22;4.10;;;;;;;;;;4845850;28;20056;-67
2023/06/13 10:55:23;;;;;;;10.57;4.00;;;;;;;;;;4843836;28;20126;-66
2023/06/13 10:57:49;;;;;;;6.68;4.20;;;;;;;;;;4859490;28;20332;-65
2023/06/13 11:00:33;;;;;;;8.50;4.00;;;;;;;;;;4846333;28;20063;-66
2023/06/13 11:03:00;;;;;;;8.27;4.03;;;;;;;;;;4845999;28;20173;-67
2023/06/13 11:05:26;;;;;;;9.80;3.90;;;;;;;;;;4845480;28;20044;-66
2023/06/13 11:07:53;;;;;;;7.22;3.75;;;;;;;;;;4846238;28;20911;-65
2023/06/13 11:10:19;;;;;;;6.47;4.05;;;;;;;;;;4844006;28;20122;-65
2023/06/13 11:12:44;;;;;;;5.65;3.72;;;;;;;;;;4861216;28;21173;-65
2023/06/13 11:15:22;;;;;;;7.05;3.90;;;;;;;;;;4844815;28;20124;-66
2023/06/13 11:18:13;;;;;;;7.95;3.92;;;;;;;;;;4844771;28;20060;-66
2023/06/13 11:20:50;;;;;;;8.77;3.85;;;;;;;;;;4845572;28;20039;-66
2023/06/13 11:23:21;;;;;;;5.45;3.92;;;;;;;;;;4845497;28;20045;-67
2023/06/13 11:25:52;;;;;;;5.72;3.78;;;;;;;;;;4845089;28;20037;-67
2023/06/13 11:28:18;;;;;;;8.23;3.85;;;;;;;;;;4845853;28;20772;-67
2023/06/13 11:30:44;;;;;;;7.75;3.97;;;;;;;;;;4844581;28;20040;-66
2023/06/13 11:33:11;;;;;;;9.95;3.90;;;;;;;;;;4843599;28;20045;-68
2023/06/13 11:35:37;;;;;;;6.35;3.67;;;;;;;;;;4846119;28;20044;-67
2023/06/13 11:38:07;;;;;;;6.20;3.58;;;;;;;;;;4843072;28;20091;-67
2023/06/13 11:40:39;;;;;;;9.73;3.90;;;;;;;;;;4844852;28;20037;-67
2023/06/13 11:43:07;;;;;;;6.10;3.75;;;;;;;;;;4845869;28;20048;-68
2023/06/13 11:45:35;;;;;;;6.93;3.85;;;;;;;;;;4861734;28;21208;-68
2023/06/13 11:48:01;;;;;;;7.05;3.90;;;;;;;;;;4845524;28;20032;-66
2023/06/13 11:50:28;;;;;;;7.93;4.20;;;;;;;;;;4844771;28;20968;-66
2023/06/13 11:53:06;;;;;;;6.50;3.70;;;;;;;;;;4844331;28;20032;-66
2023/06/13 11:55:31;;;;;;;9.10;3.70;;;;;;;;;;4841182;28;20033;-69
2023/06/13 11:57:56;;;;;;;6.03;3.92;;;;;;;;;;4856554;28;20173;-67
2023/06/13 12:00:26;;;;;;;6.15;3.75;;;;;;;;;;4840448;28;20064;-68
2023/06/13 12:02:51;;;;;;;9.15;4.32;;;;;;;;;;4840246;28;20187;-67
2023/06/13 12:05:17;;;;;;;7.30;3.80;;;;;;;;;;4841466;28;20036;-67
2023/06/13 12:07:43;;;;;;;7.25;3.70;;;;;;;;;;4840181;28;20159;-67
2023/06/13 12:10:09;;;;;;;8.45;3.78;;;;;;;;;;4842764;28;20746;-68
2023/06/13 12:12:34;;;;;;;6.15;3.80;;;;;;;;;;4841130;28;20220;-67
2023/06/13 12:15:01;;;;;;;7.32;3.92;;;;;;;;;;4841516;28;20151;-65
2023/06/13 12:17:26;;;;;;;8.00;3.72;;;;;;;;;;4839993;28;20732;-67
2023/06/13 12:20:07;;;;;;;6.75;3.72;;;;;;;;;;4857021;28;20048;-64
2023/06/13 12:22:32;;;;;;;7.00;4.20;;;;;;;;;;4841326;28;20519;-66
2023/06/13 12:24:58;;;;;;;5.50;3.78;;;;;;;;;;4841956;28;20043;-65
2023/06/13 12:27:25;;;;;;;7.30;3.72;;;;;;;;;;4839960;28;20048;-66
2023/06/13 12:29:51;;;;;;;5.75;3.92;;;;;;;;;;4842902;29;20176;-66
2023/06/13 12:32:16;;;;;;;4.20;3.63;;;;;;;;;;4842191;28;20131;-65
2023/06/13 12:34:45;;;;;;;7.22;3.50;;;;;;;;;;4839710;28;20195;-66
2023/06/13 12:37:13;;;;;;;6.72;3.53;;;;;;;;;;4842412;28;20065;-66
2023/06/13 12:39:58;;;;;;;5.60;3.63;;;;;;;;;;4842437;28;20048;-67
2023/06/13 12:42:23;;;;;;;4.85;3.75;;;;;;;;;;4840653;28;20046;-66
2023/06/13 12:44:48;;;;;;;5.32;3.78;;;;;;;;;;4840127;28;20036;-67
2023/06/13 12:47:14;;;;;;;11.82;4.40;;;;;;;;;;4839936;28;20932;-67
2023/06/13 12:49:39;;;;;;;7.68;3.90;;;;;;;;;;4858174;28;20045;-67
2023/06/13 12:52:15;;;;;;;5.03;3.75;;;;;;;;;;4841719;28;20055;-68
2023/06/13 12:54:40;;;;;;;7.35;3.70;;;;;;;;;;4839931;28;20040;-67
2023/06/13 12:57:06;;;;;;;7.72;3.65;;;;;;;;;;4856931;28;20389;-68
2023/06/13 12:59:38;;;;;;;10.55;3.90;;;;;;;;;;4838919;28;20852;-66
2023/06/13 13:02:07;;;;;;;4.50;3.40;;;;;;;;;;4839938;28;20500;-66
2023/06/13 13:04:34;;;;;;;4.72;3.53;;;;;;;;;;4836954;28;20521;-66
2023/06/13 13:06:59;;;;;;;6.00;3.63;;;;;;;;;;4852885;28;20068;-66
2023/06/13 13:09:28;;;;;;;5.22;3.60;;;;;;;;;;4853321;28;20415;-66
2023/06/13 13:11:56;;;;;;;10.00;3.85;;;;;;;;;;4839076;28;20057;-65
2023/06/13 13:14:25;;;;;;;5.05;3.30;;;;;;;;;;4851948;28;20160;-66
2023/06/13 13:16:51;;;;;;;6.45;3.88;;;;;;;;;;4841973;28;20041;-65
2023/06/13 13:19:16;;;;;;;7.93;3.85;;;;;;;;;;4843593;28;20568;-65
2023/06/13 13:21:44;;;;;;;6.10;3.58;;;;;;;;;;4854108;28;20087;-66
2023/06/13 13:24:09;;;;;;;8.48;3.75;;;;;;;;;;4846236;28;20040;-66
2023/06/13 13:26:35;;;;;;;7.88;3.60;;;;;;;;;;4841838;28;20983;-66
2023/06/13 13:29:00;;;;;;;7.82;3.50;;;;;;;;;;4839095;28;20150;-66
2023/06/13 13:31:26;;;;;;;5.63;3.70;;;;;;;;;;4843267;28;20234;-67
2023/06/13 13:33:51;;;;;;;7.63;3.70;;;;;;;;;;4844895;28;20155;-66
2023/06/13 13:36:16;;;;;;;6.97;3.45;;;;;;;;;;4842955;28;20051;-67
2023/06/13 13:38:41;;;;;;;5.72;3.20;;;;;;;;;;4841566;28;20045;-66
2023/06/13 13:41:07;;;;;;;5.25;3.70;;;;;;;;;;4842410;28;20617;-66
2023/06/13 13:43:34;;;;;;;6.32;3.70;;;;;;;;;;4844606;28;20037;-66
2023/06/13 13:46:00;;;;;;;5.63;3.67;;;;;;;;;;4844902;28;20642;-64
2023/06/13 13:48:25;;;;;;;6.95;3.65;;;;;;;;;;4847142;28;20045;-67
2023/06/13 13:50:50;;;;;;;7.60;3.58;;;;;;;;;;4849931;28;20075;-66
2023/06/13 13:53:17;;;;;;;7.30;3.83;;;;;;;;;;4845532;28;20053;-66
2023/06/13 13:55:43;;;;;;;5.57;3.63;;;;;;;;;;4846264;28;20098;-66
2023/06/13 13:58:10;;;;;;;5.82;3.35;;;;;;;;;;4847774;28;20267;-66
2023/06/13 14:00:36;;;;;;;5.25;3.50;;;;;;;;;;4903552;28;21228;-67
2023/06/13 14:03:04;;;;;;;7.30;3.65;;;;;;;;;;4858486;28;20044;-66
2023/06/13 14:05:31;;;;;;;5.80;3.50;;;;;;;;;;4845862;28;20033;-66
2023/06/13 14:07:57;;;;;;;5.65;3.58;;;;;;;;;;4861141;28;20048;-67
2023/06/13 14:10:22;;;;;;;4.78;3.65;;;;;;;;;;4844520;28;20445;-67
2023/06/13 14:12:50;;;;;;;4.68;3.55;;;;;;;;;;4844369;28;20060;-66
2023/06/13 14:15:15;;;;;;;7.78;3.72;;;;;;;;;;4859028;28;20048;-67
2023/06/13 14:17:41;;;;;;;6.47;3.45;;;;;;;;;;4844934;28;20233;-71
2023/06/13 14:20:08;;;;;;;4.85;3.30;;;;;;;;;;4859562;28;20131;-71
2023/06/13 14:22:33;;;;;;;6.13;3.38;;;;;;;;;;4847866;28;23348;-72
2023/06/13 14:24:59;;;;;;;4.80;3.55;;;;;;;;;;4861231;28;20047;-72
2023/06/13 14:27:24;;;;;;;7.47;3.30;;;;;;;;;;4845287;28;20049;-72
2023/06/13 14:29:51;;;;;;;7.25;3.15;;;;;;;;;;4845352;28;20943;-70
2023/06/13 14:32:17;;;;;;;7.10;2.97;;;;;;;;;;4846356;28;20044;-70
2023/06/13 14:34:44;;;;;;;6.13;3.40;;;;;;;;;;4844698;28;20056;-69
2023/06/13 14:37:10;;;;;;;6.30;3.13;;;;;;;;;;4846505;28;20762;-73
2023/06/13 14:39:35;;;;;;;5.53;3.08;;;;;;;;;;4845616;28;20049;-70